Invader — WDC6283 — position and weather

sailwx.info

Track history (hours):
 
Tides and Currents Weather Stations Pressure Air Temp Water Temp Dewpoint Dewpoint Depression Visibility Wind Speed Wind Dir Waves Ship Positions

Invader

Owner: Nautical Investiment Corporation, Amelia, LA. More information available from US FCC via Universal Licensing System and Coast Guard Vessel Documentation Center.

Last reported at 2014-Dec-18 09:34 UTC. Time now 2014-Dec-18 10:34 UTC.
Position N 29°28' W 091°17'.

Length 40 m; draft 3 m.

Type: Passenger vessel. MMSI: 367053990.

Date/timePositionNaut miles runAvg speedWind from/ knotsBaromVisibWave heightAir tempDewpointWater temp
2014-Dec-18 09:34N 29°28' W 091°17'1312.8
2014-Dec-18 08:33N 29°41' W 091°13'1 1.3
2014-Dec-18 07:33N 29°41' W 091°12'0 0.0
2014-Dec-18 06:33N 29°41' W 091°12'0 0.0
2014-Dec-18 05:33N 29°41' W 091°12'0 0.0
2014-Dec-18 04:33N 29°41' W 091°12'0 0.0
2014-Dec-18 03:33N 29°41' W 091°12'0 0.0
2014-Dec-18 02:33N 29°41' W 091°12'0 0.0
2014-Dec-18 01:33N 29°41' W 091°12'0 0.0
2014-Dec-18 00:34N 29°41' W 091°12'0 0.0
2014-Dec-17 23:33N 29°41' W 091°12'0 0.0
2014-Dec-17 22:33N 29°41' W 091°12'0 0.0
2014-Dec-17 21:33N 29°41' W 091°12'2 2.5
2014-Dec-17 20:33N 29°40' W 091°14'0 0.1
2014-Dec-17 19:33N 29°40' W 091°14'3 2.5
2014-Dec-17 18:33N 29°41' W 091°12'1 0.8
2014-Dec-17 17:33N 29°41' W 091°13'1110.7
2014-Dec-17 16:33N 29°31' W 091°16'14 2.2
2014-Dec-17 10:19N 29°20' W 091°25'1317.3
2014-Dec-17 09:34N 29°30' W 091°16'1211.6
2014-Dec-17 08:33N 29°41' W 091°13'1 0.8
2014-Dec-17 07:33N 29°41' W 091°12'0 0.0
2014-Dec-17 06:33N 29°41' W 091°12'0 0.0
2014-Dec-17 05:33N 29°41' W 091°12'0 0.0
2014-Dec-17 04:33N 29°41' W 091°12'0 0.0
2014-Dec-17 03:33N 29°41' W 091°12'0 0.0
2014-Dec-17 02:33N 29°41' W 091°12'0 0.0
2014-Dec-17 01:33N 29°41' W 091°12'7 6.8
2014-Dec-17 00:34N 29°35' W 091°14'1514.9
2014-Dec-16 23:31N 29°22' W 091°23'4 0.3
2014-Dec-16 10:27N 29°18' W 091°27'1416.0
2014-Dec-16 09:34N 29°29' W 091°16'1212.1
2014-Dec-16 08:33N 29°41' W 091°13'1 1.0
2014-Dec-16 07:34N 29°41' W 091°12'0 0.0
2014-Dec-16 06:33N 29°41' W 091°12'0 0.0
2014-Dec-16 05:33N 29°41' W 091°12'0 0.0
2014-Dec-16 04:33N 29°41' W 091°12'0 0.0
2014-Dec-16 03:32N 29°41' W 091°12'0 0.0
2014-Dec-16 02:33N 29°41' W 091°12'0 0.2
2014-Dec-16 01:33N 29°41' W 091°12'2 2.3
2014-Dec-16 00:32N 29°40' W 091°14'0 0.0
2014-Dec-15 23:34N 29°40' W 091°14'2 1.9
2014-Dec-15 22:33N 29°41' W 091°13'1 0.7
2014-Dec-15 21:33N 29°41' W 091°12'0 0.0
2014-Dec-15 20:33N 29°41' W 091°12'2 1.7
2014-Dec-15 19:34N 29°40' W 091°14'1010.0
2014-Dec-15 18:33N 29°31' W 091°16'1513.7
2014-Dec-15 17:30N 29°19' W 091°26'12 0.5
2014-Dec-14 18:33N 29°28' W 091°17'1312.8
2014-Dec-14 17:34N 29°40' W 091°14'2 2.4
2014-Dec-14 16:33N 29°41' W 091°12'0 0.0
2014-Dec-14 15:33N 29°41' W 091°12'0 0.0
2014-Dec-14 14:33N 29°41' W 091°12'0 0.0
2014-Dec-14 13:33N 29°41' W 091°12'0 0.0
2014-Dec-14 12:33N 29°41' W 091°12'0 0.0
2014-Dec-14 11:34N 29°41' W 091°12'0 0.0
2014-Dec-14 10:33N 29°41' W 091°12'0 0.0
2014-Dec-14 09:33N 29°41' W 091°12'0 0.0
2014-Dec-14 08:33N 29°41' W 091°12'0 0.0
2014-Dec-14 07:33N 29°41' W 091°12'0 0.0
2014-Dec-14 06:33N 29°41' W 091°12'0 0.0
2014-Dec-14 05:33N 29°41' W 091°12'0 0.0
2014-Dec-14 04:33N 29°41' W 091°12'0 0.0
2014-Dec-14 03:33N 29°41' W 091°12'0 0.0
2014-Dec-14 02:33N 29°41' W 091°12'1 1.1
2014-Dec-14 01:33N 29°41' W 091°13'9 9.1
2014-Dec-14 00:33N 29°32' W 091°16'1312.8
2014-Dec-13 23:33N 29°21' W 091°24'2 0.1
2014-Dec-13 10:16N 29°20' W 091°25'1318.0
2014-Dec-13 09:34N 29°30' W 091°16'1211.6
2014-Dec-13 08:34N 29°41' W 091°12'0 0.4
2014-Dec-13 07:33N 29°41' W 091°12'0 0.0
2014-Dec-13 06:33N 29°41' W 091°12'0 0.0
2014-Dec-13 05:33N 29°41' W 091°12'0 0.0
2014-Dec-13 04:33N 29°41' W 091°12'0 0.0
2014-Dec-13 03:34N 29°41' W 091°12'0 0.0
2014-Dec-13 02:33N 29°41' W 091°12'0 0.0
2014-Dec-13 01:34N 29°41' W 091°12'0 0.0
2014-Dec-13 00:34N 29°41' W 091°12'2 2.4
2014-Dec-12 23:33N 29°40' W 091°14'0 0.0
2014-Dec-12 22:33N 29°40' W 091°14'2 2.1
2014-Dec-12 21:33N 29°41' W 091°12'4 3.9
2014-Dec-12 20:34N 29°38' W 091°15'1110.8
2014-Dec-12 19:33N 29°27' W 091°17'6 0.7
2014-Dec-12 10:20N 29°23' W 091°22'1114.7
2014-Dec-12 09:34N 29°33' W 091°15'9 9.0
2014-Dec-12 08:33N 29°41' W 091°12'0 0.0
2014-Dec-12 07:33N 29°41' W 091°12'0 0.0
2014-Dec-12 06:33N 29°41' W 091°12'6 5.6
2014-Dec-12 05:34N 29°36' W 091°15'1413.9
2014-Dec-12 04:34N 29°24' W 091°22'1615.1
2014-Dec-12 03:30N 29°10' W 091°30'7 0.4
2014-Dec-11 11:17N 29°03' W 091°30'1716.4
2014-Dec-11 10:15N 29°19' W 091°26'1115.4
2014-Dec-11 09:33N 29°27' W 091°17'1313.0
2014-Dec-11 08:33N 29°40' W 091°14'2 2.5
2014-Dec-11 07:33N 29°41' W 091°12'0 0.0
2014-Dec-11 06:34N 29°41' W 091°12'0 0.0
2014-Dec-11 05:33N 29°41' W 091°12'0 0.0
2014-Dec-11 04:33N 29°41' W 091°12'0 0.0
2014-Dec-11 03:33N 29°41' W 091°12'0 0.0
2014-Dec-11 02:33N 29°41' W 091°12'0 0.0
2014-Dec-11 01:33N 29°41' W 091°12'0 0.0
2014-Dec-11 00:34N 29°41' W 091°12'2 2.4
2014-Dec-10 23:34N 29°40' W 091°14'1313.0
2014-Dec-10 22:33N 29°27' W 091°17'5 0.4
2014-Dec-10 09:33N 29°24' W 091°21'1413.5
2014-Dec-10 08:33N 29°36' W 091°15'6 5.7
2014-Dec-10 07:33N 29°41' W 091°12'0 0.0
2014-Dec-10 06:34N 29°41' W 091°12'0 0.0
2014-Dec-10 05:34N 29°41' W 091°12'0 0.0
2014-Dec-10 04:34N 29°41' W 091°12'0 0.0
2014-Dec-10 03:34N 29°41' W 091°12'0 0.0
2014-Dec-10 02:34N 29°41' W 091°12'0 0.0
2014-Dec-10 01:34N 29°41' W 091°12'0 0.0
2014-Dec-10 00:33N 29°41' W 091°12'0 0.0
2014-Dec-09 23:34N 29°41' W 091°12'2 2.5
2014-Dec-09 22:34N 29°40' W 091°14'1 0.8
2014-Dec-09 21:33N 29°41' W 091°13'1 1.1
2014-Dec-09 20:33N 29°40' W 091°14'1111.4
2014-Dec-09 19:33N 29°28' W 091°17'38 4.8
2014-Dec-09 11:29N 28°52' W 091°30'1816.9
2014-Dec-09 10:25N 29°10' W 091°29'1416.4
2014-Dec-09 09:33N 29°23' W 091°23'1414.2
2014-Dec-09 08:33N 29°35' W 091°14'7 6.8
2014-Dec-09 07:33N 29°41' W 091°12'0 0.0
2014-Dec-09 06:33N 29°41' W 091°12'0 0.0
2014-Dec-09 05:33N 29°41' W 091°12'0 0.0
2014-Dec-09 04:34N 29°41' W 091°12'0 0.0
2014-Dec-09 03:34N 29°41' W 091°12'3 3.1
2014-Dec-09 02:33N 29°39' W 091°14'1515.1
2014-Dec-09 01:33N 29°25' W 091°21'  
Track history (hours):
 
Tides and Currents Weather Stations Pressure Air Temp Water Temp Dewpoint Dewpoint Depression Visibility Wind Speed Wind Dir Waves Ship Positions

Invader

Owner: Nautical Investiment Corporation, Amelia, LA. More information available from US FCC via Universal Licensing System and Coast Guard Vessel Documentation Center.

Last reported at 2014-Dec-18 09:34 UTC. Time now 2014-Dec-18 10:34 UTC.
Position N 29°28' W 091°17'.

Length 40 m; draft 3 m.

Type: Passenger vessel. MMSI: 367053990.

Date/timePositionNaut miles runAvg speedWind from/ knotsBaromVisibWave heightAir tempDewpointWater temp
2014-Dec-18 09:34N 29°28' W 091°17'1312.8
2014-Dec-18 08:33N 29°41' W 091°13'1 1.3
2014-Dec-18 07:33N 29°41' W 091°12'0 0.0
2014-Dec-18 06:33N 29°41' W 091°12'0 0.0
2014-Dec-18 05:33N 29°41' W 091°12'0 0.0
2014-Dec-18 04:33N 29°41' W 091°12'0 0.0
2014-Dec-18 03:33N 29°41' W 091°12'0 0.0
2014-Dec-18 02:33N 29°41' W 091°12'0 0.0
2014-Dec-18 01:33N 29°41' W 091°12'0 0.0
2014-Dec-18 00:34N 29°41' W 091°12'0 0.0
2014-Dec-17 23:33N 29°41' W 091°12'0 0.0
2014-Dec-17 22:33N 29°41' W 091°12'0 0.0
2014-Dec-17 21:33N 29°41' W 091°12'2 2.5
2014-Dec-17 20:33N 29°40' W 091°14'0 0.1
2014-Dec-17 19:33N 29°40' W 091°14'3 2.5
2014-Dec-17 18:33N 29°41' W 091°12'1 0.8
2014-Dec-17 17:33N 29°41' W 091°13'1110.7
2014-Dec-17 16:33N 29°31' W 091°16'14 2.2
2014-Dec-17 10:19N 29°20' W 091°25'1317.3
2014-Dec-17 09:34N 29°30' W 091°16'1211.6
2014-Dec-17 08:33N 29°41' W 091°13'1 0.8
2014-Dec-17 07:33N 29°41' W 091°12'0 0.0
2014-Dec-17 06:33N 29°41' W 091°12'0 0.0
2014-Dec-17 05:33N 29°41' W 091°12'0 0.0
2014-Dec-17 04:33N 29°41' W 091°12'0 0.0
2014-Dec-17 03:33N 29°41' W 091°12'0 0.0
2014-Dec-17 02:33N 29°41' W 091°12'0 0.0
2014-Dec-17 01:33N 29°41' W 091°12'7 6.8
2014-Dec-17 00:34N 29°35' W 091°14'1514.9
2014-Dec-16 23:31N 29°22' W 091°23'4 0.3
2014-Dec-16 10:27N 29°18' W 091°27'1416.0
2014-Dec-16 09:34N 29°29' W 091°16'1212.1
2014-Dec-16 08:33N 29°41' W 091°13'1 1.0
2014-Dec-16 07:34N 29°41' W 091°12'0 0.0
2014-Dec-16 06:33N 29°41' W 091°12'0 0.0
2014-Dec-16 05:33N 29°41' W 091°12'0 0.0
2014-Dec-16 04:33N 29°41' W 091°12'0 0.0
2014-Dec-16 03:32N 29°41' W 091°12'0 0.0
2014-Dec-16 02:33N 29°41' W 091°12'0 0.2
2014-Dec-16 01:33N 29°41' W 091°12'2 2.3
2014-Dec-16 00:32N 29°40' W 091°14'0 0.0
2014-Dec-15 23:34N 29°40' W 091°14'2 1.9
2014-Dec-15 22:33N 29°41' W 091°13'1 0.7
2014-Dec-15 21:33N 29°41' W 091°12'0 0.0
2014-Dec-15 20:33N 29°41' W 091°12'2 1.7
2014-Dec-15 19:34N 29°40' W 091°14'1010.0
2014-Dec-15 18:33N 29°31' W 091°16'1513.7
2014-Dec-15 17:30N 29°19' W 091°26'12 0.5
2014-Dec-14 18:33N 29°28' W 091°17'1312.8
2014-Dec-14 17:34N 29°40' W 091°14'2 2.4
2014-Dec-14 16:33N 29°41' W 091°12'0 0.0
2014-Dec-14 15:33N 29°41' W 091°12'0 0.0
2014-Dec-14 14:33N 29°41' W 091°12'0 0.0
2014-Dec-14 13:33N 29°41' W 091°12'0 0.0
2014-Dec-14 12:33N 29°41' W 091°12'0 0.0
2014-Dec-14 11:34N 29°41' W 091°12'0 0.0
2014-Dec-14 10:33N 29°41' W 091°12'0 0.0
2014-Dec-14 09:33N 29°41' W 091°12'0 0.0
2014-Dec-14 08:33N 29°41' W 091°12'0 0.0
2014-Dec-14 07:33N 29°41' W 091°12'0 0.0
2014-Dec-14 06:33N 29°41' W 091°12'0 0.0
2014-Dec-14 05:33N 29°41' W 091°12'0 0.0
2014-Dec-14 04:33N 29°41' W 091°12'0 0.0
2014-Dec-14 03:33N 29°41' W 091°12'0 0.0
2014-Dec-14 02:33N 29°41' W 091°12'1 1.1
2014-Dec-14 01:33N 29°41' W 091°13'9 9.1
2014-Dec-14 00:33N 29°32' W 091°16'1312.8
2014-Dec-13 23:33N 29°21' W 091°24'2 0.1
2014-Dec-13 10:16N 29°20' W 091°25'1318.0
2014-Dec-13 09:34N 29°30' W 091°16'1211.6
2014-Dec-13 08:34N 29°41' W 091°12'0 0.4
2014-Dec-13 07:33N 29°41' W 091°12'0 0.0
2014-Dec-13 06:33N 29°41' W 091°12'0 0.0
2014-Dec-13 05:33N 29°41' W 091°12'0 0.0
2014-Dec-13 04:33N 29°41' W 091°12'0 0.0
2014-Dec-13 03:34N 29°41' W 091°12'0 0.0
2014-Dec-13 02:33N 29°41' W 091°12'0 0.0
2014-Dec-13 01:34N 29°41' W 091°12'0 0.0
2014-Dec-13 00:34N 29°41' W 091°12'2 2.4
2014-Dec-12 23:33N 29°40' W 091°14'0 0.0
2014-Dec-12 22:33N 29°40' W 091°14'2 2.1
2014-Dec-12 21:33N 29°41' W 091°12'4 3.9
2014-Dec-12 20:34N 29°38' W 091°15'1110.8
2014-Dec-12 19:33N 29°27' W 091°17'6 0.7
2014-Dec-12 10:20N 29°23' W 091°22'1114.7
2014-Dec-12 09:34N 29°33' W 091°15'9 9.0
2014-Dec-12 08:33N 29°41' W 091°12'0 0.0
2014-Dec-12 07:33N 29°41' W 091°12'0 0.0
2014-Dec-12 06:33N 29°41' W 091°12'6 5.6
2014-Dec-12 05:34N 29°36' W 091°15'1413.9
2014-Dec-12 04:34N 29°24' W 091°22'1615.1
2014-Dec-12 03:30N 29°10' W 091°30'7 0.4
2014-Dec-11 11:17N 29°03' W 091°30'1716.4
2014-Dec-11 10:15N 29°19' W 091°26'1115.4
2014-Dec-11 09:33N 29°27' W 091°17'1313.0
2014-Dec-11 08:33N 29°40' W 091°14'2 2.5
2014-Dec-11 07:33N 29°41' W 091°12'0 0.0
2014-Dec-11 06:34N 29°41' W 091°12'0 0.0
2014-Dec-11 05:33N 29°41' W 091°12'0 0.0
2014-Dec-11 04:33N 29°41' W 091°12'0 0.0
2014-Dec-11 03:33N 29°41' W 091°12'0 0.0
2014-Dec-11 02:33N 29°41' W 091°12'0 0.0
2014-Dec-11 01:33N 29°41' W 091°12'0 0.0
2014-Dec-11 00:34N 29°41' W 091°12'2 2.4
2014-Dec-10 23:34N 29°40' W 091°14'1313.0
2014-Dec-10 22:33N 29°27' W 091°17'5 0.4
2014-Dec-10 09:33N 29°24' W 091°21'1413.5
2014-Dec-10 08:33N 29°36' W 091°15'6 5.7
2014-Dec-10 07:33N 29°41' W 091°12'0 0.0
2014-Dec-10 06:34N 29°41' W 091°12'0 0.0
2014-Dec-10 05:34N 29°41' W 091°12'0 0.0
2014-Dec-10 04:34N 29°41' W 091°12'0 0.0
2014-Dec-10 03:34N 29°41' W 091°12'0 0.0
2014-Dec-10 02:34N 29°41' W 091°12'0 0.0
2014-Dec-10 01:34N 29°41' W 091°12'0 0.0
2014-Dec-10 00:33N 29°41' W 091°12'0 0.0
2014-Dec-09 23:34N 29°41' W 091°12'2 2.5
2014-Dec-09 22:34N 29°40' W 091°14'1 0.8
2014-Dec-09 21:33N 29°41' W 091°13'1 1.1
2014-Dec-09 20:33N 29°40' W 091°14'1111.4
2014-Dec-09 19:33N 29°28' W 091°17'38 4.8
2014-Dec-09 11:29N 28°52' W 091°30'1816.9
2014-Dec-09 10:25N 29°10' W 091°29'1416.4
2014-Dec-09 09:33N 29°23' W 091°23'1414.2
2014-Dec-09 08:33N 29°35' W 091°14'7 6.8
2014-Dec-09 07:33N 29°41' W 091°12'0 0.0
2014-Dec-09 06:33N 29°41' W 091°12'0 0.0
2014-Dec-09 05:33N 29°41' W 091°12'0 0.0
2014-Dec-09 04:34N 29°41' W 091°12'0 0.0
2014-Dec-09 03:34N 29°41' W 091°12'3 3.1
2014-Dec-09 02:33N 29°39' W 091°14'1515.1
2014-Dec-09 01:33N 29°25' W 091°21'  

Dump ship's entire track history